Nostromo Primero — EA4784 — position and weather

sailwx.info

Track history (hours):
 
Tides and Currents Weather Stations Pressure Air Temp Water Temp Dewpoint Dewpoint Depression Visibility Wind Speed Wind Dir Waves Ship Positions

Nostromo Primero

Last reported at 2017-Nov-19 18:22 UTC. Time now 2017-Nov-21 06:25 UTC.
Position N 39°34' E 002°38'.

Length 12 m.

MMSI: 224273740.

Date/timePositionNaut miles runAvg speedWind from/ knotsBaromVisibWave heightAir tempDewpointWater temp
2017-Nov-19 18:22N 39°34' E 002°38'0 0.0
2017-Nov-19 17:58N 39°34' E 002°38'2 4.0
2017-Nov-19 17:30N 39°33' E 002°40'2 4.0
2017-Nov-19 17:00N 39°32' E 002°42'2 4.5
2017-Nov-19 16:30N 39°30' E 002°43'2 4.7
2017-Nov-19 16:00N 39°27' E 002°42'3 5.5
2017-Nov-19 15:30N 39°28' E 002°39'2 4.1
2017-Nov-19 15:00N 39°28' E 002°36'2 4.3
2017-Nov-19 14:29N 39°30' E 002°34'2 1.1
2017-Nov-19 12:42N 39°32' E 002°34'1 6.1
2017-Nov-19 12:30N 39°31' E 002°36'3 5.1
2017-Nov-19 11:59N 39°33' E 002°38'0 0.5
2017-Nov-19 11:31N 39°34' E 002°38'0 0.3
2017-Nov-19 11:00N 39°34' E 002°38'0 0.1
2017-Nov-19 10:30N 39°34' E 002°38'0 0.3
2017-Nov-19 10:00N 39°34' E 002°38'0 0.1
2017-Nov-19 09:30N 39°34' E 002°38'0 0.7
2017-Nov-19 09:00N 39°34' E 002°38'0 0.0
2017-Nov-19 08:30N 39°34' E 002°38'0 0.0
2017-Nov-19 08:00N 39°34' E 002°38'0 0.0
2017-Nov-19 07:30N 39°34' E 002°38'  
2017-Nov-16 13:28N 39°34' E 002°38'0 0.0
2017-Nov-16 12:58N 39°34' E 002°38'0 0.0
2017-Nov-16 12:28N 39°34' E 002°38'0 0.0
2017-Nov-16 11:58N 39°34' E 002°38'0 0.0
2017-Nov-16 11:28N 39°34' E 002°38'0 0.0
2017-Nov-16 10:58N 39°34' E 002°38'0 0.0
2017-Nov-16 10:28N 39°34' E 002°38'  
2017-Nov-12 18:16N 39°34' E 002°38'0 0.0
2017-Nov-12 17:58N 39°34' E 002°38'2 3.8
2017-Nov-12 17:30N 39°33' E 002°40'2 3.6
2017-Nov-12 17:00N 39°32' E 002°38'2 4.0
2017-Nov-12 16:30N 39°31' E 002°36'2 3.8
2017-Nov-12 16:00N 39°30' E 002°34'0 0.1
2017-Nov-12 15:30N 39°30' E 002°34'2 3.7
2017-Nov-12 15:00N 39°32' E 002°35'1 1.2
2017-Nov-12 14:30N 39°32' E 002°35'2 3.6
2017-Nov-12 14:00N 39°31' E 002°33'0 0.2
2017-Nov-12 13:17N 39°31' E 002°32'0 0.0
2017-Nov-12 12:59N 39°31' E 002°32'1 1.1
2017-Nov-12 12:30N 39°31' E 002°33'2 3.0
2017-Nov-12 11:50N 39°29' E 002°32'2 5.2
2017-Nov-12 11:28N 39°30' E 002°33'3 5.8
2017-Nov-12 11:00N 39°31' E 002°37'3 6.0
2017-Nov-12 10:30N 39°31' E 002°40'2 3.6
2017-Nov-12 10:00N 39°32' E 002°42'3 5.3
2017-Nov-12 09:30N 39°33' E 002°39'1 1.9
2017-Nov-12 09:00N 39°34' E 002°38'0 0.0
2017-Nov-12 08:30N 39°34' E 002°38'0 0.0
2017-Nov-12 08:00N 39°34' E 002°38'0 0.0
2017-Nov-12 07:30N 39°34' E 002°38'  
Track history (hours):
 
Tides and Currents Weather Stations Pressure Air Temp Water Temp Dewpoint Dewpoint Depression Visibility Wind Speed Wind Dir Waves Ship Positions

Nostromo Primero

Last reported at 2017-Nov-19 18:22 UTC. Time now 2017-Nov-21 06:25 UTC.
Position N 39°34' E 002°38'.

Length 12 m.

MMSI: 224273740.

Date/timePositionNaut miles runAvg speedWind from/ knotsBaromVisibWave heightAir tempDewpointWater temp
2017-Nov-19 18:22N 39°34' E 002°38'0 0.0
2017-Nov-19 17:58N 39°34' E 002°38'2 4.0
2017-Nov-19 17:30N 39°33' E 002°40'2 4.0
2017-Nov-19 17:00N 39°32' E 002°42'2 4.5
2017-Nov-19 16:30N 39°30' E 002°43'2 4.7
2017-Nov-19 16:00N 39°27' E 002°42'3 5.5
2017-Nov-19 15:30N 39°28' E 002°39'2 4.1
2017-Nov-19 15:00N 39°28' E 002°36'2 4.3
2017-Nov-19 14:29N 39°30' E 002°34'2 1.1
2017-Nov-19 12:42N 39°32' E 002°34'1 6.1
2017-Nov-19 12:30N 39°31' E 002°36'3 5.1
2017-Nov-19 11:59N 39°33' E 002°38'0 0.5
2017-Nov-19 11:31N 39°34' E 002°38'0 0.3
2017-Nov-19 11:00N 39°34' E 002°38'0 0.1
2017-Nov-19 10:30N 39°34' E 002°38'0 0.3
2017-Nov-19 10:00N 39°34' E 002°38'0 0.1
2017-Nov-19 09:30N 39°34' E 002°38'0 0.7
2017-Nov-19 09:00N 39°34' E 002°38'0 0.0
2017-Nov-19 08:30N 39°34' E 002°38'0 0.0
2017-Nov-19 08:00N 39°34' E 002°38'0 0.0
2017-Nov-19 07:30N 39°34' E 002°38'  
2017-Nov-16 13:28N 39°34' E 002°38'0 0.0
2017-Nov-16 12:58N 39°34' E 002°38'0 0.0
2017-Nov-16 12:28N 39°34' E 002°38'0 0.0
2017-Nov-16 11:58N 39°34' E 002°38'0 0.0
2017-Nov-16 11:28N 39°34' E 002°38'0 0.0
2017-Nov-16 10:58N 39°34' E 002°38'0 0.0
2017-Nov-16 10:28N 39°34' E 002°38'  
2017-Nov-12 18:16N 39°34' E 002°38'0 0.0
2017-Nov-12 17:58N 39°34' E 002°38'2 3.8
2017-Nov-12 17:30N 39°33' E 002°40'2 3.6
2017-Nov-12 17:00N 39°32' E 002°38'2 4.0
2017-Nov-12 16:30N 39°31' E 002°36'2 3.8
2017-Nov-12 16:00N 39°30' E 002°34'0 0.1
2017-Nov-12 15:30N 39°30' E 002°34'2 3.7
2017-Nov-12 15:00N 39°32' E 002°35'1 1.2
2017-Nov-12 14:30N 39°32' E 002°35'2 3.6
2017-Nov-12 14:00N 39°31' E 002°33'0 0.2
2017-Nov-12 13:17N 39°31' E 002°32'0 0.0
2017-Nov-12 12:59N 39°31' E 002°32'1 1.1
2017-Nov-12 12:30N 39°31' E 002°33'2 3.0
2017-Nov-12 11:50N 39°29' E 002°32'2 5.2
2017-Nov-12 11:28N 39°30' E 002°33'3 5.8
2017-Nov-12 11:00N 39°31' E 002°37'3 6.0
2017-Nov-12 10:30N 39°31' E 002°40'2 3.6
2017-Nov-12 10:00N 39°32' E 002°42'3 5.3
2017-Nov-12 09:30N 39°33' E 002°39'1 1.9
2017-Nov-12 09:00N 39°34' E 002°38'0 0.0
2017-Nov-12 08:30N 39°34' E 002°38'0 0.0
2017-Nov-12 08:00N 39°34' E 002°38'0 0.0
2017-Nov-12 07:30N 39°34' E 002°38'  

Dump ship's entire track history